sensor_id;sensor_type;location;lat;lon;timestamp;temperature;humidity
68648;SHT31;55632;51.962;16.116;2023-03-29T00:03:29;-2.79;67.43
68648;SHT31;55632;51.962;16.116;2023-03-29T00:08:31;-2.83;67.48
68648;SHT31;55632;51.962;16.116;2023-03-29T00:13:33;-2.80;67.70
68648;SHT31;55632;51.962;16.116;2023-03-29T00:18:34;-2.81;67.93
68648;SHT31;55632;51.962;16.116;2023-03-29T00:23:35;-2.87;68.22
68648;SHT31;55632;51.962;16.116;2023-03-29T00:28:36;-2.92;68.44
68648;SHT31;55632;51.962;16.116;2023-03-29T00:33:41;-2.94;68.58
68648;SHT31;55632;51.962;16.116;2023-03-29T00:38:44;-2.95;68.75
68648;SHT31;55632;51.962;16.116;2023-03-29T00:44:04;-2.94;68.74
68648;SHT31;55632;51.962;16.116;2023-03-29T00:49:08;-2.92;68.86
68648;SHT31;55632;51.962;16.116;2023-03-29T00:54:14;-2.92;68.98
68648;SHT31;55632;51.962;16.116;2023-03-29T00:59:22;-2.97;69.15
68648;SHT31;55632;51.962;16.116;2023-03-29T01:04:30;-2.95;69.27
68648;SHT31;55632;51.962;16.116;2023-03-29T01:09:35;-2.95;69.38
68648;SHT31;55632;51.962;16.116;2023-03-29T01:15:00;-2.98;69.46
68648;SHT31;55632;51.962;16.116;2023-03-29T01:26:01;-3.09;70.05
68648;SHT31;55632;51.962;16.116;2023-03-29T01:31:14;-3.11;70.26
68648;SHT31;55632;51.962;16.116;2023-03-29T01:36:30;-3.11;70.46
68648;SHT31;55632;51.962;16.116;2023-03-29T01:46:46;-3.12;70.66
68648;SHT31;55632;51.962;16.116;2023-03-29T01:52:02;-3.06;70.69
68648;SHT31;55632;51.962;16.116;2023-03-29T01:57:08;-3.02;70.71
68648;SHT31;55632;51.962;16.116;2023-03-29T02:02:14;-3.02;70.81
68648;SHT31;55632;51.962;16.116;2023-03-29T02:07:23;-3.05;70.97
68648;SHT31;55632;51.962;16.116;2023-03-29T02:12:25;-3.05;71.18
68648;SHT31;55632;51.962;16.116;2023-03-29T02:17:28;-3.04;71.49
68648;SHT31;55632;51.962;16.116;2023-03-29T02:22:37;-3.01;71.56
68648;SHT31;55632;51.962;16.116;2023-03-29T02:27:40;-2.99;71.84
68648;SHT31;55632;51.962;16.116;2023-03-29T02:32:52;-2.95;72.07
68648;SHT31;55632;51.962;16.116;2023-03-29T02:37:56;-2.87;72.04
68648;SHT31;55632;51.962;16.116;2023-03-29T02:43:00;-2.80;72.02
68648;SHT31;55632;51.962;16.116;2023-03-29T02:48:05;-2.70;72.14
68648;SHT31;55632;51.962;16.116;2023-03-29T02:53:13;-2.62;72.15
68648;SHT31;55632;51.962;16.116;2023-03-29T02:58:16;-2.56;72.26
68648;SHT31;55632;51.962;16.116;2023-03-29T03:03:17;-2.50;72.37
68648;SHT31;55632;51.962;16.116;2023-03-29T03:08:21;-2.43;72.48
68648;SHT31;55632;51.962;16.116;2023-03-29T03:13:22;-2.42;72.91
68648;SHT31;55632;51.962;16.116;2023-03-29T03:18:24;-2.41;72.94
68648;SHT31;55632;51.962;16.116;2023-03-29T03:23:24;-2.41;73.15
68648;SHT31;55632;51.962;16.116;2023-03-29T03:28:25;-2.38;73.20
68648;SHT31;55632;51.962;16.116;2023-03-29T03:33:27;-2.31;73.15
68648;SHT31;55632;51.962;16.116;2023-03-29T03:38:57;-2.28;72.71
68648;SHT31;55632;51.962;16.116;2023-03-29T03:43:58;-2.31;72.73
68648;SHT31;55632;51.962;16.116;2023-03-29T03:48:59;-2.34;72.66
68648;SHT31;55632;51.962;16.116;2023-03-29T03:54:06;-2.31;72.81
68648;SHT31;55632;51.962;16.116;2023-03-29T03:59:07;-2.31;72.96
68648;SHT31;55632;51.962;16.116;2023-03-29T04:04:18;-2.29;72.97
68648;SHT31;55632;51.962;16.116;2023-03-29T04:09:39;-2.26;73.18
68648;SHT31;55632;51.962;16.116;2023-03-29T04:14:59;-2.29;73.22
68648;SHT31;55632;51.962;16.116;2023-03-29T04:20:01;-2.32;73.21
68648;SHT31;55632;51.962;16.116;2023-03-29T04:25:09;-2.32;73.22
68648;SHT31;55632;51.962;16.116;2023-03-29T04:30:23;-2.35;73.35
68648;SHT31;55632;51.962;16.116;2023-03-29T04:35:42;-2.31;73.44
68648;SHT31;55632;51.962;16.116;2023-03-29T04:40:48;-2.29;73.48
68648;SHT31;55632;51.962;16.116;2023-03-29T04:46:15;-2.28;73.63
68648;SHT31;55632;51.962;16.116;2023-03-29T04:51:34;-2.26;73.75
68648;SHT31;55632;51.962;16.116;2023-03-29T04:56:35;-2.21;73.86
68648;SHT31;55632;51.962;16.116;2023-03-29T05:02:07;-2.07;74.10
68648;SHT31;55632;51.962;16.116;2023-03-29T05:07:10;-1.87;73.95
68648;SHT31;55632;51.962;16.116;2023-03-29T05:12:13;-1.80;73.84
68648;SHT31;55632;51.962;16.116;2023-03-29T05:17:24;-1.72;73.75
68648;SHT31;55632;51.962;16.116;2023-03-29T05:22:29;-1.65;73.83
68648;SHT31;55632;51.962;16.116;2023-03-29T05:27:30;-1.55;73.88
68648;SHT31;55632;51.962;16.116;2023-03-29T05:32:37;-1.42;73.99
68648;SHT31;55632;51.962;16.116;2023-03-29T05:37:39;-1.24;74.04
68648;SHT31;55632;51.962;16.116;2023-03-29T05:42:40;-1.01;74.47
68648;SHT31;55632;51.962;16.116;2023-03-29T05:47:44;-0.68;74.31
68648;SHT31;55632;51.962;16.116;2023-03-29T05:52:46;-0.40;74.19
68648;SHT31;55632;51.962;16.116;2023-03-29T05:57:47;-0.17;74.01
68648;SHT31;55632;51.962;16.116;2023-03-29T06:02:49;-0.03;74.34
68648;SHT31;55632;51.962;16.116;2023-03-29T06:07:51;0.14;74.10
68648;SHT31;55632;51.962;16.116;2023-03-29T06:12:58;0.38;73.94
68648;SHT31;55632;51.962;16.116;2023-03-29T06:18:03;0.53;73.82
68648;SHT31;55632;51.962;16.116;2023-03-29T06:23:04;0.69;73.85
68648;SHT31;55632;51.962;16.116;2023-03-29T06:28:05;0.81;73.97
68648;SHT31;55632;51.962;16.116;2023-03-29T06:33:09;0.98;73.95
68648;SHT31;55632;51.962;16.116;2023-03-29T06:38:36;1.18;74.01
68648;SHT31;55632;51.962;16.116;2023-03-29T06:44:09;1.39;74.16
68648;SHT31;55632;51.962;16.116;2023-03-29T06:49:32;1.64;74.12
68648;SHT31;55632;51.962;16.116;2023-03-29T06:54:55;1.88;74.15
68648;SHT31;55632;51.962;16.116;2023-03-29T06:59:58;2.16;74.02
68648;SHT31;55632;51.962;16.116;2023-03-29T07:05:19;2.40;73.73
68648;SHT31;55632;51.962;16.116;2023-03-29T07:10:27;2.54;73.54
68648;SHT31;55632;51.962;16.116;2023-03-29T07:15:49;2.77;73.40
68648;SHT31;55632;51.962;16.116;2023-03-29T07:21:13;2.93;72.78
68648;SHT31;55632;51.962;16.116;2023-03-29T07:26:14;3.03;72.68
68648;SHT31;55632;51.962;16.116;2023-03-29T07:31:16;3.16;72.18
68648;SHT31;55632;51.962;16.116;2023-03-29T07:36:22;3.33;72.10
68648;SHT31;55632;51.962;16.116;2023-03-29T07:41:24;3.60;71.84
68648;SHT31;55632;51.962;16.116;2023-03-29T07:46:30;3.83;71.65
68648;SHT31;55632;51.962;16.116;2023-03-29T07:51:31;4.11;71.29
68648;SHT31;55632;51.962;16.116;2023-03-29T07:56:40;4.36;70.77
68648;SHT31;55632;51.962;16.116;2023-03-29T08:01:58;4.59;70.21
68648;SHT31;55632;51.962;16.116;2023-03-29T08:07:04;4.87;69.87
68648;SHT31;55632;51.962;16.116;2023-03-29T08:12:32;5.10;69.10
68648;SHT31;55632;51.962;16.116;2023-03-29T08:17:34;5.30;68.60
68648;SHT31;55632;51.962;16.116;2023-03-29T08:22:37;5.49;68.01
68648;SHT31;55632;51.962;16.116;2023-03-29T08:27:56;5.70;67.49
68648;SHT31;55632;51.962;16.116;2023-03-29T08:33:18;6.01;66.92
68648;SHT31;55632;51.962;16.116;2023-03-29T08:38:24;6.31;66.56
68648;SHT31;55632;51.962;16.116;2023-03-29T08:43:33;6.63;66.03
68648;SHT31;55632;51.962;16.116;2023-03-29T08:49:01;6.91;64.19
68648;SHT31;55632;51.962;16.116;2023-03-29T08:54:12;7.19;63.79
68648;SHT31;55632;51.962;16.116;2023-03-29T08:59:35;7.49;63.07
68648;SHT31;55632;51.962;16.116;2023-03-29T09:04:41;7.67;61.86
68648;SHT31;55632;51.962;16.116;2023-03-29T09:10:00;7.90;61.11
68648;SHT31;55632;51.962;16.116;2023-03-29T09:15:21;8.06;59.66
68648;SHT31;55632;51.962;16.116;2023-03-29T09:20:45;8.28;59.28
68648;SHT31;55632;51.962;16.116;2023-03-29T09:25:58;8.50;58.75
68648;SHT31;55632;51.962;16.116;2023-03-29T09:31:31;8.63;56.94
68648;SHT31;55632;51.962;16.116;2023-03-29T09:36:43;8.74;55.77
68648;SHT31;55632;51.962;16.116;2023-03-29T09:41:53;8.77;54.84
68648;SHT31;55632;51.962;16.116;2023-03-29T09:47:17;8.92;55.08
68648;SHT31;55632;51.962;16.116;2023-03-29T09:52:22;9.05;54.36
68648;SHT31;55632;51.962;16.116;2023-03-29T09:57:34;9.20;54.02
68648;SHT31;55632;51.962;16.116;2023-03-29T10:02:35;9.36;54.03
68648;SHT31;55632;51.962;16.116;2023-03-29T10:07:43;9.54;53.78
68648;SHT31;55632;51.962;16.116;2023-03-29T10:12:49;9.68;52.06
68648;SHT31;55632;51.962;16.116;2023-03-29T10:17:57;9.78;52.29
68648;SHT31;55632;51.962;16.116;2023-03-29T10:22:58;9.88;51.91
68648;SHT31;55632;51.962;16.116;2023-03-29T10:28:05;10.01;52.10
68648;SHT31;55632;51.962;16.116;2023-03-29T10:33:18;10.09;51.61
68648;SHT31;55632;51.962;16.116;2023-03-29T10:38:22;10.21;51.39
68648;SHT31;55632;51.962;16.116;2023-03-29T10:43:33;10.36;51.12
68648;SHT31;55632;51.962;16.116;2023-03-29T10:48:37;10.51;51.40
68648;SHT31;55632;51.962;16.116;2023-03-29T10:53:39;10.65;50.67
68648;SHT31;55632;51.962;16.116;2023-03-29T11:25:37;11.47;49.02
68648;SHT31;55632;51.962;16.116;2023-03-29T11:51:39;11.87;47.53
68648;SHT31;55632;51.962;16.116;2023-03-29T11:56:50;11.76;47.92
68648;SHT31;55632;51.962;16.116;2023-03-29T12:12:54;11.59;47.77
68648;SHT31;55632;51.962;16.116;2023-03-29T12:18:08;11.59;48.26
68648;SHT31;55632;51.962;16.116;2023-03-29T12:23:15;11.64;47.95
68648;SHT31;55632;51.962;16.116;2023-03-29T12:39:13;12.00;48.12
68648;SHT31;55632;51.962;16.116;2023-03-29T12:44:34;12.12;47.44
68648;SHT31;55632;51.962;16.116;2023-03-29T12:49:55;12.19;48.07
68648;SHT31;55632;51.962;16.116;2023-03-29T12:54:59;12.24;47.71
68648;SHT31;55632;51.962;16.116;2023-03-29T13:00:17;12.28;46.42
68648;SHT31;55632;51.962;16.116;2023-03-29T13:05:33;12.28;46.75
68648;SHT31;55632;51.962;16.116;2023-03-29T13:10:40;12.28;46.74
68648;SHT31;55632;51.962;16.116;2023-03-29T13:15:42;12.30;46.80
68648;SHT31;55632;51.962;16.116;2023-03-29T13:42:41;12.56;47.05
68648;SHT31;55632;51.962;16.116;2023-03-29T13:47:45;12.61;46.99
68648;SHT31;55632;51.962;16.116;2023-03-29T13:53:01;12.54;46.92
68648;SHT31;55632;51.962;16.116;2023-03-29T13:58:09;12.40;47.12
68648;SHT31;55632;51.962;16.116;2023-03-29T14:03:14;12.33;47.27
68648;SHT31;55632;51.962;16.116;2023-03-29T14:08:20;12.19;47.31
68648;SHT31;55632;51.962;16.116;2023-03-29T14:13:24;12.13;47.59
68648;SHT31;55632;51.962;16.116;2023-03-29T14:18:27;12.12;48.18
68648;SHT31;55632;51.962;16.116;2023-03-29T14:23:36;12.17;48.17
68648;SHT31;55632;51.962;16.116;2023-03-29T14:28:47;12.21;48.44
68648;SHT31;55632;51.962;16.116;2023-03-29T14:33:56;12.24;48.43
68648;SHT31;55632;51.962;16.116;2023-03-29T14:39:04;12.17;49.04
68648;SHT31;55632;51.962;16.116;2023-03-29T14:44:08;12.12;49.45
68648;SHT31;55632;51.962;16.116;2023-03-29T14:49:14;12.02;49.65
68648;SHT31;55632;51.962;16.116;2023-03-29T14:54:28;11.92;49.76
68648;SHT31;55632;51.962;16.116;2023-03-29T14:59:36;11.76;50.92
68648;SHT31;55632;51.962;16.116;2023-03-29T15:04:40;11.66;50.88
68648;SHT31;55632;51.962;16.116;2023-03-29T15:09:43;11.61;51.16
68648;SHT31;55632;51.962;16.116;2023-03-29T15:14:49;11.52;52.15
68648;SHT31;55632;51.962;16.116;2023-03-29T15:20:03;11.48;52.08
68648;SHT31;55632;51.962;16.116;2023-03-29T15:25:17;11.48;52.43
68648;SHT31;55632;51.962;16.116;2023-03-29T15:30:18;11.52;52.56
68648;SHT31;55632;51.962;16.116;2023-03-29T15:35:24;11.48;52.90
68648;SHT31;55632;51.962;16.116;2023-03-29T15:40:25;11.47;53.00
68648;SHT31;55632;51.962;16.116;2023-03-29T15:45:29;11.34;53.42
68648;SHT31;55632;51.962;16.116;2023-03-29T15:50:32;11.19;53.77
68648;SHT31;55632;51.962;16.116;2023-03-29T15:55:33;11.06;54.15
68648;SHT31;55632;51.962;16.116;2023-03-29T16:00:35;10.95;54.73
68648;SHT31;55632;51.962;16.116;2023-03-29T16:05:36;10.80;55.13
68648;SHT31;55632;51.962;16.116;2023-03-29T16:10:44;10.61;55.41
68648;SHT31;55632;51.962;16.116;2023-03-29T16:15:45;10.48;56.06
68648;SHT31;55632;51.962;16.116;2023-03-29T16:20:47;10.36;56.65
68648;SHT31;55632;51.962;16.116;2023-03-29T16:25:47;10.27;57.04
68648;SHT31;55632;51.962;16.116;2023-03-29T16:30:48;10.19;57.50
68648;SHT31;55632;51.962;16.116;2023-03-29T16:35:49;10.13;57.85
68648;SHT31;55632;51.962;16.116;2023-03-29T16:40:50;10.05;58.30
68648;SHT31;55632;51.962;16.116;2023-03-29T16:45:55;9.95;58.67
68648;SHT31;55632;51.962;16.116;2023-03-29T16:50:56;9.82;58.90
68648;SHT31;55632;51.962;16.116;2023-03-29T16:56:03;9.71;59.40
68648;SHT31;55632;51.962;16.116;2023-03-29T17:01:08;9.54;59.63
68648;SHT31;55632;51.962;16.116;2023-03-29T17:06:10;9.41;60.15
68648;SHT31;55632;51.962;16.116;2023-03-29T17:11:11;9.30;60.31
68648;SHT31;55632;51.962;16.116;2023-03-29T17:16:12;9.18;60.68
68648;SHT31;55632;51.962;16.116;2023-03-29T17:21:13;9.05;61.06
68648;SHT31;55632;51.962;16.116;2023-03-29T17:26:17;8.93;61.40
68648;SHT31;55632;51.962;16.116;2023-03-29T17:31:18;8.82;61.80
68648;SHT31;55632;51.962;16.116;2023-03-29T17:36:19;8.72;62.13
68648;SHT31;55632;51.962;16.116;2023-03-29T17:41:23;8.63;62.40
68648;SHT31;55632;51.962;16.116;2023-03-29T17:46:24;8.56;62.68
68648;SHT31;55632;51.962;16.116;2023-03-29T17:51:28;8.49;62.99
68648;SHT31;55632;51.962;16.116;2023-03-29T17:56:31;8.43;63.38
68648;SHT31;55632;51.962;16.116;2023-03-29T18:01:32;8.32;63.77
68648;SHT31;55632;51.962;16.116;2023-03-29T18:06:33;8.26;64.13
68648;SHT31;55632;51.962;16.116;2023-03-29T18:11:35;8.24;64.36
68648;SHT31;55632;51.962;16.116;2023-03-29T18:16:36;8.21;64.58
68648;SHT31;55632;51.962;16.116;2023-03-29T18:21:37;8.13;64.80
68648;SHT31;55632;51.962;16.116;2023-03-29T18:26:43;8.10;65.06
68648;SHT31;55632;51.962;16.116;2023-03-29T18:31:45;8.06;65.25
68648;SHT31;55632;51.962;16.116;2023-03-29T18:36:45;8.05;65.50
68648;SHT31;55632;51.962;16.116;2023-03-29T18:41:49;7.98;65.75
68648;SHT31;55632;51.962;16.116;2023-03-29T18:46:50;7.95;66.01
68648;SHT31;55632;51.962;16.116;2023-03-29T18:51:52;7.88;66.16
68648;SHT31;55632;51.962;16.116;2023-03-29T18:56:54;7.87;66.32
68648;SHT31;55632;51.962;16.116;2023-03-29T19:01:55;7.83;66.54
68648;SHT31;55632;51.962;16.116;2023-03-29T19:06:57;7.78;66.68
68648;SHT31;55632;51.962;16.116;2023-03-29T19:12:01;7.78;66.84
68648;SHT31;55632;51.962;16.116;2023-03-29T19:17:02;7.77;66.99
68648;SHT31;55632;51.962;16.116;2023-03-29T19:22:06;7.75;67.17
68648;SHT31;55632;51.962;16.116;2023-03-29T19:27:10;7.75;67.32
68648;SHT31;55632;51.962;16.116;2023-03-29T19:32:13;7.74;67.60
68648;SHT31;55632;51.962;16.116;2023-03-29T19:37:14;7.69;67.78
68648;SHT31;55632;51.962;16.116;2023-03-29T19:42:16;7.63;68.01
68648;SHT31;55632;51.962;16.116;2023-03-29T19:47:17;7.62;68.21
68648;SHT31;55632;51.962;16.116;2023-03-29T19:52:18;7.57;68.39
68648;SHT31;55632;51.962;16.116;2023-03-29T19:57:23;7.47;68.51
68648;SHT31;55632;51.962;16.116;2023-03-29T20:02:24;7.39;68.72
68648;SHT31;55632;51.962;16.116;2023-03-29T20:07:25;7.32;68.98
68648;SHT31;55632;51.962;16.116;2023-03-29T20:17:40;7.26;69.54
68648;SHT31;55632;51.962;16.116;2023-03-29T20:22:41;7.29;69.76
68648;SHT31;55632;51.962;16.116;2023-03-29T20:27:44;7.29;69.86
68648;SHT31;55632;51.962;16.116;2023-03-29T20:32:48;7.28;69.98
68648;SHT31;55632;51.962;16.116;2023-03-29T20:37:49;7.28;70.11
68648;SHT31;55632;51.962;16.116;2023-03-29T20:42:51;7.26;70.26
68648;SHT31;55632;51.962;16.116;2023-03-29T20:47:53;7.26;70.39
68648;SHT31;55632;51.962;16.116;2023-03-29T20:52:56;7.23;70.53
68648;SHT31;55632;51.962;16.116;2023-03-29T20:58:03;7.22;70.81
68648;SHT31;55632;51.962;16.116;2023-03-29T21:03:08;7.19;71.15
68648;SHT31;55632;51.962;16.116;2023-03-29T21:08:10;7.15;71.35
68648;SHT31;55632;51.962;16.116;2023-03-29T21:13:11;7.14;71.67
68648;SHT31;55632;51.962;16.116;2023-03-29T21:18:19;7.08;72.00
68648;SHT31;55632;51.962;16.116;2023-03-29T21:23:31;7.03;72.15
68648;SHT31;55632;51.962;16.116;2023-03-29T21:28:35;6.97;72.27
68648;SHT31;55632;51.962;16.116;2023-03-29T21:33:37;6.90;72.36
68648;SHT31;55632;51.962;16.116;2023-03-29T21:38:41;6.83;72.48
68648;SHT31;55632;51.962;16.116;2023-03-29T21:43:41;6.79;72.52
68648;SHT31;55632;51.962;16.116;2023-03-29T21:48:46;6.69;72.73
68648;SHT31;55632;51.962;16.116;2023-03-29T21:53:47;6.65;73.06
68648;SHT31;55632;51.962;16.116;2023-03-29T21:58:48;6.62;73.44
68648;SHT31;55632;51.962;16.116;2023-03-29T22:03:52;6.63;73.72
68648;SHT31;55632;51.962;16.116;2023-03-29T22:08:55;6.63;73.95
68648;SHT31;55632;51.962;16.116;2023-03-29T22:14:00;6.70;74.14
68648;SHT31;55632;51.962;16.116;2023-03-29T22:19:01;6.69;74.25
68648;SHT31;55632;51.962;16.116;2023-03-29T22:24:01;6.73;74.38
68648;SHT31;55632;51.962;16.116;2023-03-29T22:29:02;6.77;74.39
68648;SHT31;55632;51.962;16.116;2023-03-29T22:34:06;6.80;74.43
68648;SHT31;55632;51.962;16.116;2023-03-29T22:39:07;6.80;74.47
68648;SHT31;55632;51.962;16.116;2023-03-29T22:44:08;6.76;74.58
68648;SHT31;55632;51.962;16.116;2023-03-29T22:49:09;6.77;74.63
68648;SHT31;55632;51.962;16.116;2023-03-29T22:54:10;6.76;74.78
68648;SHT31;55632;51.962;16.116;2023-03-29T22:59:11;6.76;74.87
68648;SHT31;55632;51.962;16.116;2023-03-29T23:04:12;6.75;74.99
68648;SHT31;55632;51.962;16.116;2023-03-29T23:09:13;6.75;75.15
68648;SHT31;55632;51.962;16.116;2023-03-29T23:14:14;6.73;75.25
68648;SHT31;55632;51.962;16.116;2023-03-29T23:19:17;6.76;75.32
68648;SHT31;55632;51.962;16.116;2023-03-29T23:24:18;6.80;75.38
68648;SHT31;55632;51.962;16.116;2023-03-29T23:29:19;6.79;75.38
68648;SHT31;55632;51.962;16.116;2023-03-29T23:34:20;6.80;75.44
68648;SHT31;55632;51.962;16.116;2023-03-29T23:39:22;6.83;75.50
68648;SHT31;55632;51.962;16.116;2023-03-29T23:44:23;6.83;75.61
68648;SHT31;55632;51.962;16.116;2023-03-29T23:49:24;6.86;75.65
68648;SHT31;55632;51.962;16.116;2023-03-29T23:54:24;6.84;75.76
68648;SHT31;55632;51.962;16.116;2023-03-29T23:59:31;6.87;75.91
